Terminal Aerodrome Forecast
Issued by NWS Sterling, VA

Current Version | Previous Version | Text Only | Print | Product List | Glossary Off
Versions: 1 2 3 4 5 6 7 8 9 10 11 12 13 14 15 16 17 18 19 20 21 22 23 24 25 26

000
FTUS41 KLWX 052333
TAFIAD
TAF
KIAD 052333Z 0600/0706 02006KT P6SM SCT015 OVC035
     FM060200 01004KT P6SM OVC015
     FM060400 36004KT P6SM -SHRA OVC008
     FM061100 36008KT P6SM -SHRA OVC010
     FM061300 36008KT 6SM -SHRA OVC015
     FM061400 35009KT 5SM SHRA OVC015
     FM061600 35009KT 3SM SHRA OVC015
     FM062200 35008KT 2SM BR OVC010=

USA.gov is the U.S. government's official web portal to all federal, state and local government web resources and services.